Time;durP1;ratioP1;P1;durP2;ratioP2;P2;SDS_P1;SDS_P2;PMS_P1;PMS_P2;Temp;Humidity;BMP_temperature;BMP_pressure;BME280_temperature;BME280_humidity;BME280_pressure;Samples;Min_cycle;Max_cycle;Signal;HPM_P1;HPM_P2
2023/05/05 00:00:51;;;;;;;10.63;7.90;;;;;;;16.80;69.62;101326.31;4985714;28;20069;-66
2023/05/05 00:03:19;;;;;;;9.07;8.18;;;;;;;16.78;69.77;101322.16;4988018;28;20073;-63
2023/05/05 00:05:45;;;;;;;11.07;8.23;;;;;;;16.76;70.81;101329.88;4985433;28;20093;-63
2023/05/05 00:08:10;;;;;;;11.23;8.27;;;;;;;16.70;71.16;101331.72;4984104;28;20062;-67
2023/05/05 00:10:35;;;;;;;10.43;7.57;;;;;;;16.66;71.95;101330.56;4987349;28;20042;-66
2023/05/05 00:13:01;;;;;;;11.10;9.15;;;;;;;16.63;72.64;101324.72;4986671;28;20046;-65
2023/05/05 00:15:26;;;;;;;10.20;7.93;;;;;;;16.58;73.08;101340.19;4985716;28;20030;-65
2023/05/05 00:17:51;;;;;;;10.63;8.90;;;;;;;16.55;73.83;101335.16;4985971;28;20037;-67
2023/05/05 00:20:16;;;;;;;11.60;9.02;;;;;;;16.54;74.50;101338.19;4987403;28;20030;-68
2023/05/05 00:22:42;;;;;;;10.48;8.75;;;;;;;16.53;74.85;101339.28;4986054;28;20665;-68
2023/05/05 00:25:07;;;;;;;10.88;9.77;;;;;;;16.54;76.73;101344.56;4985988;28;20037;-65
2023/05/05 00:27:33;;;;;;;10.63;9.50;;;;;;;16.56;77.06;101339.59;4986021;28;20065;-67
2023/05/05 00:29:58;;;;;;;11.23;9.50;;;;;;;16.58;77.61;101345.75;4986312;28;20062;-67
2023/05/05 00:32:23;;;;;;;11.40;10.40;;;;;;;16.56;79.34;101336.81;4985361;28;20355;-68
2023/05/05 00:34:48;;;;;;;12.60;11.40;;;;;;;16.55;80.11;101339.88;4986540;28;20026;-65
2023/05/05 00:37:13;;;;;;;12.02;10.82;;;;;;;16.53;80.62;101342.06;4986288;28;20045;-67
2023/05/05 00:39:39;;;;;;;12.02;10.82;;;;;;;16.50;81.02;101346.19;4985425;28;20022;-68
2023/05/05 00:42:04;;;;;;;12.90;11.40;;;;;;;16.47;81.77;101346.69;4987560;28;20045;-67
2023/05/05 00:44:36;;;;;;;12.75;11.45;;;;;;;16.40;81.96;101337.72;4984007;28;20400;-65
2023/05/05 00:47:02;;;;;;;12.63;11.52;;;;;;;16.33;82.75;101337.09;4980998;28;20433;-67
2023/05/05 00:49:28;;;;;;;12.95;11.73;;;;;;;16.30;83.12;101334.81;4979073;28;20030;-63
2023/05/05 00:51:54;;;;;;;13.25;11.95;;;;;;;16.23;83.55;101337.78;4973612;28;20040;-65
2023/05/05 00:54:19;;;;;;;13.48;12.15;;;;;;;16.19;84.03;101336.63;4990262;28;20061;-66
2023/05/05 00:56:46;;;;;;;13.18;11.88;;;;;;;16.16;84.18;101344.59;4990595;28;20126;-63
2023/05/05 00:59:12;;;;;;;13.00;11.50;;;;;;;16.15;84.92;101351.25;4991740;28;20034;-67
2023/05/05 01:01:37;;;;;;;13.68;12.27;;;;;;;16.12;83.89;101357.28;4988532;28;20077;-62
2023/05/05 01:04:02;;;;;;;12.85;11.60;;;;;;;16.11;84.37;101355.63;4991385;28;20563;-64
2023/05/05 01:06:53;;;;;;;12.50;11.30;;;;;;;16.07;84.20;101350.59;4989419;28;20146;-66
2023/05/05 01:10:01;;;;;;;12.38;11.18;;;;;;;16.05;82.53;101349.16;4988806;28;20068;-67
2023/05/05 01:12:36;;;;;;;12.63;10.88;;;;;;;15.96;83.92;101345.97;4933505;29;20024;-65
2023/05/05 01:15:22;;;;;;;11.48;10.35;;;;;;;15.97;83.15;101352.41;4983335;28;20416;-67
2023/05/05 01:18:27;;;;;;;11.73;10.52;;;;;;;15.91;82.96;101351.44;4985674;28;20084;-68
2023/05/05 01:21:03;;;;;;;10.32;9.23;;;;;;;15.87;82.79;101363.31;4989952;28;20034;-67
2023/05/05 01:23:39;;;;;;;10.30;9.25;;;;;;;15.82;81.61;101372.38;4989275;28;20105;-67
2023/05/05 01:26:31;;;;;;;10.32;8.98;;;;;;;15.76;82.26;101365.06;4988803;28;20038;-67
2023/05/05 01:29:00;;;;;;;10.13;9.13;;;;;;;15.70;83.54;101377.16;4990292;28;20166;-67
2023/05/05 01:31:51;;;;;;;10.77;9.57;;;;;;;15.68;83.69;101377.41;4987605;28;20378;-64
2023/05/05 01:34:25;;;;;;;10.07;9.07;;;;;;;15.69;83.48;101375.47;4982445;28;20428;-66
2023/05/05 01:36:57;;;;;;;10.00;8.73;;;;;;;15.67;83.28;101363.84;4989982;28;20045;-66
2023/05/05 01:39:28;;;;;;;9.38;7.90;;;;;;;15.71;82.45;101359.44;4986717;28;20026;-66
2023/05/05 01:41:58;;;;;;;8.70;6.57;;;;;;;15.73;81.46;101347.03;4989025;28;20053;-67
2023/05/05 01:44:26;;;;;;;9.18;7.10;;;;;;;15.72;80.48;101334.28;4989707;28;20050;-68
2023/05/05 01:46:53;;;;;;;8.65;6.90;;;;;;;15.70;81.73;101346.69;4988434;28;20756;-66
2023/05/05 01:49:19;;;;;;;8.20;6.85;;;;;;;15.65;82.01;101349.38;4990355;28;20106;-62
2023/05/05 01:51:46;;;;;;;7.88;6.78;;;;;;;15.53;82.66;101358.59;4988586;28;20043;-63
2023/05/05 01:54:14;;;;;;;8.00;6.22;;;;;;;15.51;82.21;101362.69;4989598;28;20105;-67
2023/05/05 01:56:41;;;;;;;6.47;5.38;;;;;;;15.47;81.76;101370.66;4989340;28;20474;-66
2023/05/05 01:59:07;;;;;;;7.40;6.13;;;;;;;15.41;81.91;101368.91;4989406;28;20042;-67
2023/05/05 02:01:36;;;;;;;7.28;5.35;;;;;;;15.39;81.52;101360.00;4987519;28;20054;-67
2023/05/05 02:04:03;;;;;;;6.55;5.38;;;;;;;15.37;82.80;101362.19;4990006;28;20476;-66
2023/05/05 02:06:32;;;;;;;8.10;5.13;;;;;;;15.34;81.82;101354.38;4988936;28;20586;-66
2023/05/05 02:08:59;;;;;;;7.07;4.95;;;;;;;15.30;82.67;101358.72;4988963;28;20077;-66
2023/05/05 02:11:27;;;;;;;7.30;5.22;;;;;;;15.25;82.92;101365.00;4988694;28;20010;-66
2023/05/05 02:13:53;;;;;;;;;;;;;;;15.34;79.70;101367.38;4990293;28;20034;-67
2023/05/05 02:16:20;;;;;;;6.22;5.00;;;;;;;15.13;83.20;101375.31;4987480;28;19925;-62
2023/05/05 02:18:47;;;;;;;5.95;4.80;;;;;;;15.04;83.56;101363.78;4990050;28;20377;-66
2023/05/05 02:21:13;;;;;;;5.95;4.40;;;;;;;14.98;84.67;101364.78;4992034;28;20053;-67
2023/05/05 02:23:39;;;;;;;6.75;4.82;;;;;;;14.91;84.36;101368.81;4988364;28;20393;-63
2023/05/05 02:26:09;;;;;;;5.60;4.50;;;;;;;14.85;84.56;101369.75;4988781;28;20030;-67
2023/05/05 02:29:00;;;;;;;5.63;4.25;;;;;;;14.82;84.22;101370.28;4989877;28;20039;-66
2023/05/05 02:31:27;;;;;;;7.47;4.57;;;;;;;14.65;85.64;101384.88;4986939;28;20026;-65
2023/05/05 02:33:55;;;;;;;5.57;4.30;;;;;;;14.60;85.86;101383.91;4987154;28;20030;-68
2023/05/05 02:36:24;;;;;;;6.40;4.55;;;;;;;14.52;84.92;101377.69;5039401;23;20061;-61
2023/05/05 02:38:57;;;;;;;6.63;3.92;;;;;;;14.50;85.36;101384.56;5025355;28;20109;-67
2023/05/05 02:41:26;;;;;;;5.45;3.95;;;;;;;14.43;85.82;101378.28;5024264;28;20025;-65
2023/05/05 02:43:53;;;;;;;5.60;4.00;;;;;;;14.37;85.66;101385.63;5028021;28;20037;-67
2023/05/05 02:46:19;;;;;;;5.75;4.53;;;;;;;14.32;86.16;101388.28;5027651;28;20052;-65
2023/05/05 02:48:44;;;;;;;6.40;4.25;;;;;;;14.25;85.92;101396.69;5013256;28;20058;-63
2023/05/05 02:51:10;;;;;;;5.55;3.88;;;;;;;14.26;85.33;101401.13;5015696;28;20388;-63
2023/05/05 02:53:35;;;;;;;5.43;3.88;;;;;;;14.21;85.64;101403.78;5027835;28;20030;-64
2023/05/05 02:56:25;;;;;;;4.60;3.30;;;;;;;14.21;84.78;101405.72;5028187;28;20056;-67
2023/05/05 02:58:55;;;;;;;5.75;3.42;;;;;;;14.09;85.81;101404.84;5026035;28;20029;-67
2023/05/05 03:01:25;;;;;;;3.90;2.97;;;;;;;14.08;86.18;101400.41;5026811;28;20030;-66
2023/05/05 03:03:58;;;;;;;4.50;2.67;;;;;;;14.04;86.06;101402.84;5027128;28;20021;-66
2023/05/05 03:06:27;;;;;;;3.58;2.83;;;;;;;13.99;86.58;101400.78;5026470;28;20044;-67
2023/05/05 03:09:06;;;;;;;4.78;3.10;;;;;;;13.97;86.82;101408.47;5026820;28;20035;-67
2023/05/05 03:11:55;;;;;;;3.45;2.55;;;;;;;13.97;85.78;101407.63;5025698;28;20386;-66
2023/05/05 03:14:21;;;;;;;4.93;2.78;;;;;;;13.89;87.87;101395.03;5026723;28;20025;-66
2023/05/05 03:16:48;;;;;;;4.05;2.33;;;;;;;13.85;87.22;101395.75;5026888;28;20029;-66
2023/05/05 03:19:17;;;;;;;5.13;2.95;;;;;;;13.77;88.62;101394.16;5027060;28;20022;-61
2023/05/05 03:21:43;;;;;;;5.00;2.67;;;;;;;13.75;89.17;101399.09;5022272;28;20140;-65
2023/05/05 03:24:19;;;;;;;4.22;2.60;;;;;;;13.76;89.03;101406.28;5025596;28;20750;-66
2023/05/05 03:26:46;;;;;;;4.28;2.50;;;;;;;13.64;89.32;101408.22;5027164;28;20120;-65
2023/05/05 03:29:12;;;;;;;4.30;2.60;;;;;;;13.56;89.27;101403.03;5025849;28;20038;-66
2023/05/05 03:31:37;;;;;;;4.10;2.70;;;;;;;13.54;90.25;101408.78;5025537;28;20034;-61
2023/05/05 03:34:03;;;;;;;3.40;2.53;;;;;;;13.52;89.43;101407.31;5026807;28;20341;-67
2023/05/05 03:36:28;;;;;;;4.90;3.00;;;;;;;13.46;89.71;101409.94;5026288;28;20042;-67
2023/05/05 03:38:54;;;;;;;3.55;2.65;;;;;;;13.41;90.76;101411.75;5026598;28;20037;-67
2023/05/05 03:41:20;;;;;;;4.28;3.00;;;;;;;13.40;90.66;101408.13;5025075;28;20040;-65
2023/05/05 03:43:46;;;;;;;4.50;3.38;;;;;;;13.32;90.93;101411.22;5026376;28;20045;-67
2023/05/05 03:46:11;;;;;;;4.85;3.40;;;;;;;13.28;91.04;101414.69;5026619;28;20029;-64
2023/05/05 03:48:36;;;;;;;5.07;3.88;;;;;;;13.25;91.75;101421.53;5027362;28;20442;-67
2023/05/05 03:51:02;;;;;;;5.68;4.10;;;;;;;13.26;91.47;101417.69;5025078;28;20025;-67
2023/05/05 03:53:27;;;;;;;5.72;4.00;;;;;;;13.27;92.30;101427.63;5026692;28;20048;-66
2023/05/05 03:55:52;;;;;;;6.40;4.45;;;;;;;13.26;91.87;101425.13;5025125;28;20075;-62
2023/05/05 03:58:17;;;;;;;6.25;4.75;;;;;;;13.24;92.63;101428.13;5023084;28;20037;-66
2023/05/05 04:00:43;;;;;;;6.88;4.78;;;;;;;13.19;92.84;101423.28;5022833;28;20032;-67
2023/05/05 04:03:08;;;;;;;6.43;4.82;;;;;;;13.17;93.29;101430.94;5026057;28;20029;-66
2023/05/05 04:05:34;;;;;;;7.88;5.35;;;;;;;13.16;93.34;101431.16;5026399;28;20056;-65
2023/05/05 04:07:59;;;;;;;7.80;5.35;;;;;;;13.13;93.83;101431.66;5024930;28;20035;-66
2023/05/05 04:10:24;;;;;;;8.38;5.65;;;;;;;13.14;95.09;101447.13;5023282;28;20037;-65
2023/05/05 04:12:50;;;;;;;7.32;5.63;;;;;;;13.11;95.02;101442.06;5025262;28;20067;-66
2023/05/05 04:15:15;;;;;;;10.45;6.75;;;;;;;13.11;95.30;101445.66;5026144;28;20061;-61
2023/05/05 04:17:40;;;;;;;8.23;6.68;;;;;;;13.05;95.31;101443.84;5024747;28;20034;-65
2023/05/05 04:20:07;;;;;;;7.40;6.60;;;;;;;13.05;95.44;101448.50;5024842;28;20044;-66
2023/05/05 04:22:32;;;;;;;9.13;7.47;;;;;;;13.02;96.64;101452.56;5023867;28;20035;-66
2023/05/05 04:24:57;;;;;;;7.85;7.05;;;;;;;13.04;95.94;101455.94;5024557;28;20037;-65
2023/05/05 04:27:24;;;;;;;9.80;7.45;;;;;;;12.98;96.58;101456.88;5023684;28;20033;-66
2023/05/05 04:29:50;;;;;;;8.40;7.60;;;;;;;12.97;96.97;101453.25;5023387;28;20044;-64
2023/05/05 04:32:15;;;;;;;8.95;7.45;;;;;;;12.96;97.06;101457.09;5024764;28;20663;-66
2023/05/05 04:34:40;;;;;;;10.52;9.00;;;;;;;12.99;96.99;101453.88;5027003;28;20021;-66
2023/05/05 04:37:06;;;;;;;9.73;8.47;;;;;;;12.99;97.04;101455.81;5022981;28;20049;-65
2023/05/05 04:39:31;;;;;;;10.40;9.40;;;;;;;13.02;96.80;101460.84;5025220;28;20607;-63
2023/05/05 04:41:56;;;;;;;10.00;9.00;;;;;;;13.05;98.24;101459.53;5025359;28;20035;-66
2023/05/05 04:44:21;;;;;;;10.25;9.18;;;;;;;13.05;97.44;101459.53;5024389;28;20094;-66
2023/05/05 04:46:47;;;;;;;10.00;9.00;;;;;;;13.05;98.46;101454.88;5025586;28;20048;-66
2023/05/05 04:49:12;;;;;;;10.13;9.13;;;;;;;13.06;98.01;101459.31;5025753;28;20064;-66
2023/05/05 04:51:42;;;;;;;10.65;9.10;;;;;;;13.03;98.48;101461.66;5024945;28;20377;-65
2023/05/05 04:54:08;;;;;;;10.60;9.23;;;;;;;13.00;98.63;101463.00;5024418;28;20462;-67
2023/05/05 04:56:33;;;;;;;9.75;8.75;;;;;;;13.00;98.54;101474.03;5025006;28;20354;-61
2023/05/05 04:58:58;;;;;;;10.63;9.52;;;;;;;12.97;98.93;101475.31;5026383;28;20049;-63
2023/05/05 05:01:24;;;;;;;12.23;9.98;;;;;;;13.00;99.08;101463.00;5023781;28;20088;-64
2023/05/05 05:03:49;;;;;;;10.68;9.52;;;;;;;13.01;98.75;101469.34;5025233;28;20025;-63
2023/05/05 05:06:15;;;;;;;12.30;9.38;;;;;;;12.96;98.99;101457.09;5018344;28;20034;-66
2023/05/05 05:08:41;;;;;;;11.30;9.90;;;;;;;12.99;98.96;101462.16;5023995;28;20036;-66
2023/05/05 05:11:07;;;;;;;10.88;9.77;;;;;;;13.01;99.36;101458.31;5024458;28;20657;-66
2023/05/05 05:13:32;;;;;;;11.20;10.05;;;;;;;13.01;99.54;101463.84;5026138;28;20037;-61
2023/05/05 05:15:58;;;;;;;10.65;9.43;;;;;;;13.08;99.37;101456.34;5023571;28;20029;-66
2023/05/05 05:18:23;;;;;;;11.23;10.13;;;;;;;13.07;99.33;101451.88;5024273;28;20442;-64
2023/05/05 05:20:48;;;;;;;11.57;9.55;;;;;;;13.06;99.00;101451.03;5024920;28;20032;-62
2023/05/05 05:23:13;;;;;;;11.18;9.88;;;;;;;13.06;100.00;101455.69;5025628;28;20014;-63
2023/05/05 05:25:39;;;;;;;10.98;9.88;;;;;;;13.09;100.00;101458.00;5024807;28;20107;-65
2023/05/05 05:28:04;;;;;;;11.57;10.38;;;;;;;13.06;100.00;101459.31;5024387;28;20080;-66
2023/05/05 05:30:29;;;;;;;11.23;9.93;;;;;;;13.11;100.00;101453.09;5024553;28;20055;-66
2023/05/05 05:32:55;;;;;;;11.10;9.98;;;;;;;13.13;100.00;101462.00;5024129;28;20034;-66
2023/05/05 05:35:20;;;;;;;12.98;10.30;;;;;;;13.16;100.00;101461.50;5023737;28;20404;-65
2023/05/05 05:37:46;;;;;;;11.60;10.30;;;;;;;13.18;100.00;101453.88;5026036;28;20052;-62
2023/05/05 05:40:12;;;;;;;11.88;10.70;;;;;;;13.23;100.00;101454.88;5024638;28;20112;-66
2023/05/05 05:42:38;;;;;;;12.18;10.45;;;;;;;13.33;99.20;101464.47;5026811;28;20468;-65
2023/05/05 05:45:05;;;;;;;11.68;10.48;;;;;;;13.33;99.72;101473.63;5026230;28;20458;-61
2023/05/05 05:47:30;;;;;;;11.45;10.35;;;;;;;13.41;98.65;101462.25;5026946;28;20034;-64
2023/05/05 05:49:55;;;;;;;11.30;10.20;;;;;;;13.48;99.05;101470.41;5029142;28;20029;-66
2023/05/05 05:52:21;;;;;;;12.70;11.10;;;;;;;13.53;99.34;101472.47;5027845;28;20021;-62
2023/05/05 05:54:46;;;;;;;11.05;9.95;;;;;;;13.58;98.29;101480.88;5028072;28;20361;-66
2023/05/05 05:57:11;;;;;;;12.50;11.13;;;;;;;13.67;98.99;101496.03;5028503;28;20133;-66
2023/05/05 05:59:36;;;;;;;12.02;10.82;;;;;;;13.73;98.36;101501.44;5027820;28;20087;-66
2023/05/05 06:02:03;;;;;;;12.23;10.93;;;;;;;13.85;98.03;101503.44;5029102;28;20029;-65
2023/05/05 06:04:29;;;;;;;13.35;11.13;;;;;;;13.95;97.19;101509.22;5027178;28;20033;-66
2023/05/05 06:06:55;;;;;;;13.43;11.13;;;;;;;14.05;97.89;101514.16;5025118;28;20128;-65
2023/05/05 06:09:20;;;;;;;12.52;11.32;;;;;;;14.14;96.95;101518.22;5028935;28;20141;-67
2023/05/05 06:11:46;;;;;;;12.77;11.30;;;;;;;14.21;96.60;101514.28;5029312;28;20056;-66
2023/05/05 06:14:11;;;;;;;13.25;11.95;;;;;;;14.31;96.49;101516.47;5027386;28;20025;-63
2023/05/05 06:16:36;;;;;;;12.95;11.65;;;;;;;14.38;96.69;101519.94;5022856;28;20498;-66
2023/05/05 06:19:02;;;;;;;13.52;12.13;;;;;;;14.45;96.41;101523.44;5025441;28;20029;-65
2023/05/05 06:21:27;;;;;;;13.25;11.65;;;;;;;14.53;96.04;101525.88;5025836;28;20024;-67
2023/05/05 06:23:52;;;;;;;13.23;11.82;;;;;;;14.62;95.88;101525.53;5026517;28;20329;-63
2023/05/05 06:26:18;;;;;;;13.43;12.02;;;;;;;14.74;96.20;101523.56;5021843;28;20040;-65
2023/05/05 06:28:43;;;;;;;13.40;12.10;;;;;;;14.83;95.80;101522.13;5018345;28;20034;-67
2023/05/05 06:31:08;;;;;;;13.75;12.45;;;;;;;14.96;95.28;101532.94;5006764;28;20069;-65
2023/05/05 06:33:34;;;;;;;13.93;12.30;;;;;;;15.11;94.99;101532.44;5006555;28;20044;-66
2023/05/05 06:35:59;;;;;;;13.27;11.37;;;;;;;15.21;94.54;101532.66;5009515;28;20084;-66
2023/05/05 06:38:24;;;;;;;13.45;11.27;;;;;;;15.26;94.14;101538.28;5024605;28;20805;-67
2023/05/05 06:40:50;;;;;;;13.38;11.80;;;;;;;15.39;94.33;101531.59;5025484;28;20030;-67
2023/05/05 06:43:16;;;;;;;13.02;10.93;;;;;;;15.52;92.73;101534.09;5015308;28;20034;-64
2023/05/05 06:45:41;;;;;;;13.13;11.73;;;;;;;15.67;92.41;101536.34;5022970;28;20117;-66
2023/05/05 06:48:07;;;;;;;13.38;11.38;;;;;;;15.91;90.03;101534.28;5022352;28;20112;-66
2023/05/05 06:50:32;;;;;;;12.02;10.82;;;;;;;16.09;89.15;101536.00;5024588;28;20026;-62
2023/05/05 06:52:58;;;;;;;12.43;10.77;;;;;;;16.32;87.06;101530.31;5012137;28;20456;-65
2023/05/05 06:55:23;;;;;;;11.10;9.82;;;;;;;16.46;85.86;101536.31;5027064;28;20036;-67
2023/05/05 06:57:49;;;;;;;11.02;9.93;;;;;;;16.59;83.95;101540.69;5023168;28;20563;-64
2023/05/05 07:00:15;;;;;;;11.38;9.57;;;;;;;16.67;85.09;101536.63;5021981;28;20032;-64
2023/05/05 07:02:41;;;;;;;11.10;9.65;;;;;;;16.68;85.16;101530.03;5020233;28;20033;-66
2023/05/05 07:05:06;;;;;;;10.75;9.05;;;;;;;16.61;85.52;101530.19;5016543;28;20479;-63
2023/05/05 07:07:32;;;;;;;10.18;9.18;;;;;;;16.55;84.51;101537.59;5017386;28;20529;-66
2023/05/05 07:09:57;;;;;;;10.98;9.05;;;;;;;16.59;86.65;101532.38;5024150;28;20033;-67
2023/05/05 07:12:23;;;;;;;10.75;8.95;;;;;;;16.65;84.88;101534.13;5025017;28;20527;-67
2023/05/05 07:14:48;;;;;;;9.98;7.68;;;;;;;16.71;82.37;101535.91;5020539;28;20170;-65
2023/05/05 07:17:13;;;;;;;11.45;8.57;;;;;;;16.73;81.46;101541.22;5031252;28;20381;-66
2023/05/05 07:19:38;;;;;;;10.90;8.90;;;;;;;16.76;83.18;101540.69;5024875;28;20133;-66
2023/05/05 07:22:04;;;;;;;10.13;8.32;;;;;;;16.80;82.42;101542.72;5016951;28;20251;-68
2023/05/05 07:24:29;;;;;;;10.30;9.15;;;;;;;16.95;82.50;101555.97;5019256;28;20096;-62
2023/05/05 07:26:54;;;;;;;10.43;8.52;;;;;;;17.07;81.72;101548.34;5020133;28;20136;-66
2023/05/05 07:29:20;;;;;;;10.50;8.55;;;;;;;17.24;82.13;101553.88;5023412;28;20029;-67
2023/05/05 07:31:45;;;;;;;11.15;8.95;;;;;;;17.43;80.29;101551.56;5024688;28;20566;-62
2023/05/05 07:34:10;;;;;;;10.15;8.82;;;;;;;17.64;79.33;101549.91;5024033;28;20029;-65
2023/05/05 07:36:36;;;;;;;11.53;9.33;;;;;;;17.94;75.46;101545.78;5023449;28;20584;-66
2023/05/05 07:39:01;;;;;;;9.93;8.30;;;;;;;18.24;74.34;101548.00;5021630;28;20295;-67
2023/05/05 07:41:26;;;;;;;10.35;8.30;;;;;;;18.50;75.83;101546.25;5023776;28;20409;-67
2023/05/05 07:43:51;;;;;;;10.47;8.50;;;;;;;18.55;72.42;101546.28;5017313;28;20040;-67
2023/05/05 07:46:17;;;;;;;9.60;7.63;;;;;;;18.54;71.48;101539.91;5021913;28;20881;-62
2023/05/05 07:48:42;;;;;;;8.55;6.93;;;;;;;18.40;70.93;101535.91;5019316;28;20120;-65
2023/05/05 07:51:08;;;;;;;7.68;6.63;;;;;;;18.31;72.26;101535.56;5021749;28;20383;-66
2023/05/05 07:53:34;;;;;;;7.88;6.00;;;;;;;18.41;70.27;101534.81;5018751;28;20034;-67
2023/05/05 07:55:59;;;;;;;9.73;5.90;;;;;;;18.69;68.95;101530.00;5021146;28;20022;-65
2023/05/05 07:58:24;;;;;;;10.20;6.50;;;;;;;18.82;69.48;101532.34;5018200;28;20029;-67
2023/05/05 08:00:50;;;;;;;8.82;6.13;;;;;;;18.66;70.15;101537.78;5017838;28;20136;-68
2023/05/05 08:03:17;;;;;;;8.15;5.65;;;;;;;18.50;69.49;101533.22;5017721;28;20029;-67
2023/05/05 08:05:42;;;;;;;8.57;6.10;;;;;;;18.79;70.54;101535.66;5015740;28;20672;-67
2023/05/05 08:08:07;;;;;;;7.40;5.65;;;;;;;19.09;68.03;101534.97;5020444;28;20038;-68
2023/05/05 08:10:32;;;;;;;9.38;6.35;;;;;;;19.37;68.07;101517.84;5026953;28;20025;-67
2023/05/05 08:12:58;;;;;;;9.73;6.70;;;;;;;19.50;67.24;101519.25;5020947;28;20025;-67
2023/05/05 08:15:23;;;;;;;7.68;6.28;;;;;;;19.46;65.50;101518.13;5024706;28;20037;-67
2023/05/05 08:17:51;;;;;;;7.85;5.40;;;;;;;19.46;65.99;101532.06;5021001;28;20060;-62
2023/05/05 08:20:18;;;;;;;6.57;4.32;;;;;;;19.38;65.87;101527.03;5019822;28;20041;-68
2023/05/05 08:22:43;;;;;;;7.55;4.45;;;;;;;19.38;66.46;101535.38;5019416;28;20132;-68
2023/05/05 08:25:09;;;;;;;7.60;4.63;;;;;;;19.42;66.71;101540.16;5020922;28;20112;-64
2023/05/05 08:27:36;;;;;;;7.22;4.82;;;;;;;19.59;64.61;101544.66;5019740;28;20056;-65
2023/05/05 08:30:02;;;;;;;6.93;4.57;;;;;;;19.77;64.37;101534.97;5021482;28;20043;-63
2023/05/05 08:32:28;;;;;;;8.45;5.25;;;;;;;19.95;64.32;101537.22;5020785;28;20029;-68
2023/05/05 08:34:53;;;;;;;7.88;5.43;;;;;;;20.08;63.86;101536.69;5022405;28;20040;-68
2023/05/05 08:37:18;;;;;;;8.15;5.43;;;;;;;20.25;63.57;101532.78;5016326;28;20069;-65
2023/05/05 08:39:43;;;;;;;8.27;6.28;;;;;;;20.40;64.33;101542.00;5022601;28;20033;-63
2023/05/05 08:42:09;;;;;;;8.47;6.47;;;;;;;20.44;64.11;101540.31;5021894;28;20028;-66
2023/05/05 08:44:35;;;;;;;8.57;6.32;;;;;;;20.34;65.40;101542.28;5016244;28;20299;-67
2023/05/05 08:47:00;;;;;;;8.68;7.18;;;;;;;20.11;65.82;101541.69;5021527;28;20444;-68
2023/05/05 08:49:30;;;;;;;7.47;5.45;;;;;;;19.95;63.78;101545.59;5020535;28;20112;-64
2023/05/05 08:52:00;;;;;;;8.00;6.47;;;;;;;19.77;64.91;101555.34;5021428;28;20506;-66
2023/05/05 08:54:29;;;;;;;8.40;5.50;;;;;;;19.56;65.45;101548.81;5019615;28;20033;-68
2023/05/05 08:56:58;;;;;;;7.90;5.40;;;;;;;19.44;65.49;101553.78;5020978;28;20441;-65
2023/05/05 08:59:24;;;;;;;8.73;5.90;;;;;;;19.38;67.88;101543.75;5023160;28;20026;-68
2023/05/05 09:01:51;;;;;;;7.68;5.18;;;;;;;19.29;67.15;101545.38;5018620;28;20500;-67
2023/05/05 09:04:18;;;;;;;7.33;5.50;;;;;;;19.27;68.74;101551.22;5020272;28;20144;-66
2023/05/05 09:06:43;;;;;;;6.45;4.20;;;;;;;19.25;66.40;101549.81;5015453;28;20745;-67
2023/05/05 09:09:09;;;;;;;5.25;3.20;;;;;;;19.36;63.79;101534.81;5018105;28;20067;-68
2023/05/05 09:11:35;;;;;;;5.70;3.50;;;;;;;19.36;66.92;101535.66;5018645;28;20956;-67
2023/05/05 09:14:00;;;;;;;6.50;4.68;;;;;;;19.40;66.98;101533.16;5025419;28;20075;-67
2023/05/05 09:16:26;;;;;;;5.65;4.38;;;;;;;19.44;66.84;101537.91;5026481;28;20395;-66
2023/05/05 09:19:00;;;;;;;6.80;3.92;;;;;;;19.64;66.19;101541.91;5025191;28;20069;-67
2023/05/05 09:21:25;;;;;;;7.07;4.18;;;;;;;19.83;63.56;101542.25;5026478;28;20025;-65
2023/05/05 09:24:02;;;;;;;6.45;4.10;;;;;;;20.08;63.01;101553.44;5026968;28;20520;-67
2023/05/05 09:26:31;;;;;;;6.07;3.20;;;;;;;20.15;61.53;101551.19;5026179;28;20033;-67
2023/05/05 09:28:57;;;;;;;5.18;3.05;;;;;;;20.13;60.21;101559.00;5024497;28;20112;-65
2023/05/05 09:31:22;;;;;;;4.47;2.60;;;;;;;20.14;61.82;101557.88;5019731;28;20422;-67
2023/05/05 09:33:47;;;;;;;5.30;3.30;;;;;;;20.22;60.40;101564.84;5019037;28;20447;-68
2023/05/05 09:36:12;;;;;;;6.97;3.13;;;;;;;20.21;62.04;101563.19;5022112;28;20045;-66
2023/05/05 09:38:38;;;;;;;4.30;2.40;;;;;;;20.02;60.56;101557.34;5023794;28;20063;-67
2023/05/05 09:41:05;;;;;;;3.47;2.22;;;;;;;19.85;62.50;101562.31;5023955;28;20701;-63
2023/05/05 09:43:48;;;;;;;3.92;1.60;;;;;;;19.82;61.93;101562.84;5025062;28;20017;-68
2023/05/05 09:46:14;;;;;;;3.83;1.70;;;;;;;19.62;60.83;101561.69;5026435;28;20072;-67
2023/05/05 09:48:39;;;;;;;2.83;1.55;;;;;;;19.53;61.02;101554.09;5026461;28;20033;-68
2023/05/05 09:51:05;;;;;;;4.97;1.80;;;;;;;19.49;62.35;101544.63;5024015;28;20021;-67
2023/05/05 09:53:40;;;;;;;2.58;1.30;;;;;;;19.37;60.89;101553.22;5025481;28;20133;-64
2023/05/05 09:56:06;;;;;;;3.08;1.58;;;;;;;19.27;60.33;101555.97;5026750;28;20082;-68
2023/05/05 09:58:31;;;;;;;3.13;1.27;;;;;;;19.27;63.34;101550.38;5023686;28;20025;-62
2023/05/05 10:00:57;;;;;;;3.65;1.50;;;;;;;19.31;64.23;101546.78;5024304;28;20117;-67
2023/05/05 10:03:24;;;;;;;2.70;1.20;;;;;;;19.30;62.40;101541.47;5025983;28;20030;-67
2023/05/05 10:05:55;;;;;;;2.88;1.00;;;;;;;19.32;62.26;101540.09;5021013;28;20450;-64
2023/05/05 10:08:23;;;;;;;3.65;1.48;;;;;;;19.30;62.58;101549.81;5015756;28;20029;-66
2023/05/05 10:10:53;;;;;;;;;;;;;;;19.46;62.82;101545.97;5012830;28;20041;-62
2023/05/05 10:13:20;;;;;;;3.15;1.80;;;;;;;19.30;64.12;101544.25;5024841;28;20356;-66
2023/05/05 10:15:49;;;;;;;4.45;2.03;;;;;;;19.30;64.21;101547.03;5028178;28;20112;-64
2023/05/05 10:18:18;;;;;;;4.78;2.63;;;;;;;19.19;64.39;101547.00;5029214;28;20061;-68
2023/05/05 10:20:46;;;;;;;3.95;2.15;;;;;;;19.13;66.85;101542.53;5028385;28;20035;-63
2023/05/05 10:23:17;;;;;;;4.43;2.50;;;;;;;18.99;65.43;101549.69;5025414;28;20471;-67
2023/05/05 10:25:49;;;;;;;5.10;2.60;;;;;;;18.87;67.32;101546.28;5028509;28;20025;-66
2023/05/05 10:28:21;;;;;;;5.82;3.42;;;;;;;18.71;69.91;101552.88;5029000;28;20032;-67
2023/05/05 10:30:50;;;;;;;6.53;3.50;;;;;;;18.45;75.18;101549.88;5028027;28;20017;-67
2023/05/05 10:33:20;;;;;;;7.00;3.15;;;;;;;18.27;73.72;101553.88;5015132;28;20059;-67
2023/05/05 10:35:51;;;;;;;6.50;3.53;;;;;;;18.10;76.51;101567.91;5015193;28;20042;-66
2023/05/05 10:38:17;;;;;;;7.43;4.18;;;;;;;17.96;81.94;101561.09;5025856;28;20034;-67
2023/05/05 10:40:47;;;;;;;10.73;4.53;;;;;;;17.73;88.15;101555.84;5028570;28;20036;-65
2023/05/05 10:43:16;;;;;;;6.20;3.80;;;;;;;17.43;88.99;101559.91;5022792;28;20029;-67
2023/05/05 10:45:42;;;;;;;7.55;4.20;;;;;;;17.25;91.63;101563.03;5021916;28;20084;-66
2023/05/05 10:48:13;;;;;;;7.55;4.22;;;;;;;17.07;91.99;101576.09;5028144;28;20033;-66
2023/05/05 10:50:48;;;;;;;6.15;4.00;;;;;;;16.95;91.73;101583.72;5028422;28;20026;-63
2023/05/05 10:53:20;;;;;;;7.13;4.68;;;;;;;16.86;93.65;101576.91;5028080;28;20034;-65
2023/05/05 10:56:11;;;;;;;8.18;5.30;;;;;;;16.80;98.58;101577.94;5028415;28;20499;-66
2023/05/05 10:58:38;;;;;;;8.10;5.10;;;;;;;16.75;99.16;101580.63;5028764;28;20056;-66
2023/05/05 11:01:05;;;;;;;6.55;4.68;;;;;;;16.66;100.00;101585.72;5026137;28;20112;-66
2023/05/05 11:03:30;;;;;;;8.05;5.05;;;;;;;16.53;99.87;101586.94;5024713;28;20025;-62
2023/05/05 11:06:02;;;;;;;8.50;5.55;;;;;;;16.45;100.00;101589.28;5024645;28;20039;-66
2023/05/05 11:08:28;;;;;;;8.65;4.70;;;;;;;16.35;100.00;101588.00;5028332;28;20439;-66
2023/05/05 11:10:53;;;;;;;7.75;3.95;;;;;;;16.32;100.00;101582.09;5027766;28;20029;-64
2023/05/05 11:13:19;;;;;;;4.32;2.17;;;;;;;15.99;99.20;101597.63;5028273;28;20356;-63
2023/05/05 11:15:45;;;;;;;3.80;1.85;;;;;;;15.55;99.10;101590.91;5018042;28;20037;-64
2023/05/05 11:18:29;;;;;;;4.15;1.48;;;;;;;15.23;99.96;101596.03;5027049;28;20029;-66
2023/05/05 11:20:57;;;;;;;3.60;1.40;;;;;;;14.91;100.00;101607.50;5025029;28;20084;-64